sensor_id;sensor_type;location;lat;lon;timestamp;pressure;altitude;pressure_sealevel;temperature;humidity
76358;BME280;65185;21.060;105.826;2023-02-15T00:01:54;102389.53;;;18.84;77.19
76358;BME280;65185;21.060;105.826;2023-02-15T00:04:23;102400.16;;;18.86;78.65
76358;BME280;65185;21.060;105.826;2023-02-15T00:06:50;102406.16;;;18.88;78.11
76358;BME280;65185;21.060;105.826;2023-02-15T00:09:17;102405.59;;;18.86;77.68
76358;BME280;65185;21.060;105.826;2023-02-15T00:11:43;102405.34;;;18.87;78.47
76358;BME280;65185;21.060;105.826;2023-02-15T00:14:20;102402.88;;;18.86;80.14
76358;BME280;65185;21.060;105.826;2023-02-15T00:16:49;102406.41;;;18.86;80.63
76358;BME280;65185;21.060;105.826;2023-02-15T00:19:18;102405.59;;;18.86;79.14
76358;BME280;65185;21.060;105.826;2023-02-15T00:21:47;102411.88;;;18.86;79.65
76358;BME280;65185;21.060;105.826;2023-02-15T00:24:16;102417.88;;;18.88;79.92
76358;BME280;65185;21.060;105.826;2023-02-15T00:26:45;102429.28;;;18.85;79.11
76358;BME280;65185;21.060;105.826;2023-02-15T00:29:13;102439.09;;;18.86;79.17
76358;BME280;65185;21.060;105.826;2023-02-15T00:31:40;102442.88;;;18.85;79.34
76358;BME280;65185;21.060;105.826;2023-02-15T00:34:17;102434.47;;;18.82;79.73
76358;BME280;65185;21.060;105.826;2023-02-15T00:36:45;102438.81;;;18.83;80.28
76358;BME280;65185;21.060;105.826;2023-02-15T00:39:12;102440.72;;;18.82;81.65
76358;BME280;65185;21.060;105.826;2023-02-15T00:41:39;102438.00;;;18.82;81.93
76358;BME280;65185;21.060;105.826;2023-02-15T00:44:06;102441.81;;;18.81;81.69
76358;BME280;65185;21.060;105.826;2023-02-15T00:46:33;102446.44;;;18.81;81.17
76358;BME280;65185;21.060;105.826;2023-02-15T00:49:00;102449.97;;;18.81;81.42
76358;BME280;65185;21.060;105.826;2023-02-15T00:51:28;102449.97;;;18.81;80.97
76358;BME280;65185;21.060;105.826;2023-02-15T00:53:54;102456.50;;;18.80;82.08
76358;BME280;65185;21.060;105.826;2023-02-15T00:56:21;102461.94;;;18.80;82.48
76358;BME280;65185;21.060;105.826;2023-02-15T00:58:48;102469.03;;;18.81;85.35
76358;BME280;65185;21.060;105.826;2023-02-15T01:01:17;102468.47;;;18.79;87.51
76358;BME280;65185;21.060;105.826;2023-02-15T01:03:44;102469.53;;;18.78;85.16
76358;BME280;65185;21.060;105.826;2023-02-15T01:06:13;102471.47;;;18.78;85.43
76358;BME280;65185;21.060;105.826;2023-02-15T01:08:40;102480.41;;;18.73;86.75
76358;BME280;65185;21.060;105.826;2023-02-15T01:11:10;102476.63;;;18.74;84.53
76358;BME280;65185;21.060;105.826;2023-02-15T01:13:38;102483.16;;;18.78;84.50
76358;BME280;65185;21.060;105.826;2023-02-15T01:16:05;102489.72;;;18.77;84.21
76358;BME280;65185;21.060;105.826;2023-02-15T01:18:32;102498.16;;;18.81;81.73
76358;BME280;65185;21.060;105.826;2023-02-15T01:20:59;102498.94;;;18.76;79.49
76358;BME280;65185;21.060;105.826;2023-02-15T01:23:26;102500.84;;;18.76;78.90
76358;BME280;65185;21.060;105.826;2023-02-15T01:25:52;102512.81;;;18.75;78.04
76358;BME280;65185;21.060;105.826;2023-02-15T01:28:19;102503.31;;;18.77;78.47
76358;BME280;65185;21.060;105.826;2023-02-15T01:30:45;102518.25;;;18.75;76.29
76358;BME280;65185;21.060;105.826;2023-02-15T01:33:12;102512.81;;;18.75;75.88
76358;BME280;65185;21.060;105.826;2023-02-15T01:35:44;102513.91;;;18.74;76.18
76358;BME280;65185;21.060;105.826;2023-02-15T01:38:14;102519.91;;;18.76;75.17
76358;BME280;65185;21.060;105.826;2023-02-15T01:40:41;102521.81;;;18.75;75.23
76358;BME280;65185;21.060;105.826;2023-02-15T01:43:12;102514.72;;;18.74;75.43
76358;BME280;65185;21.060;105.826;2023-02-15T01:45:39;102525.63;;;18.79;77.25
76358;BME280;65185;21.060;105.826;2023-02-15T01:50:59;102540.28;;;18.73;75.66
76358;BME280;65185;21.060;105.826;2023-02-15T01:53:32;102532.41;;;18.72;75.52
76358;BME280;65185;21.060;105.826;2023-02-15T01:56:11;102540.84;;;18.75;73.41
76358;BME280;65185;21.060;105.826;2023-02-15T01:58:39;102547.63;;;18.73;72.16
76358;BME280;65185;21.060;105.826;2023-02-15T02:01:07;102543.59;;;18.75;73.04
76358;BME280;65185;21.060;105.826;2023-02-15T02:04:09;102547.38;;;18.74;73.54
76358;BME280;65185;21.060;105.826;2023-02-15T02:06:38;102550.91;;;18.69;73.47
76358;BME280;65185;21.060;105.826;2023-02-15T02:09:05;102552.81;;;18.69;72.38
76358;BME280;65185;21.060;105.826;2023-02-15T02:11:32;102560.41;;;18.67;72.43
76358;BME280;65185;21.060;105.826;2023-02-15T02:14:00;102566.13;;;18.65;72.69
76358;BME280;65185;21.060;105.826;2023-02-15T02:47:52;102567.00;;;18.76;72.57
76358;BME280;65185;21.060;105.826;2023-02-15T02:50:29;102575.19;;;18.81;73.18
76358;BME280;65185;21.060;105.826;2023-02-15T02:52:57;102581.19;;;18.83;70.63
76358;BME280;65185;21.060;105.826;2023-02-15T02:58:21;102574.09;;;18.82;71.50
76358;BME280;65185;21.060;105.826;2023-02-15T03:03:28;102580.06;;;18.79;72.05
76358;BME280;65185;21.060;105.826;2023-02-15T03:06:02;102573.81;;;18.79;72.04
76358;BME280;65185;21.060;105.826;2023-02-15T03:08:45;102578.94;;;18.70;71.00
76358;BME280;65185;21.060;105.826;2023-02-15T03:11:13;102573.75;;;18.68;71.54
76358;BME280;65185;21.060;105.826;2023-02-15T03:13:40;102587.13;;;18.70;71.38
76358;BME280;65185;21.060;105.826;2023-02-15T03:16:09;102582.50;;;18.71;72.27
76358;BME280;65185;21.060;105.826;2023-02-15T03:19:08;102577.28;;;18.64;71.44
76358;BME280;65185;21.060;105.826;2023-02-15T03:21:46;102577.84;;;18.66;71.58
76358;BME280;65185;21.060;105.826;2023-02-15T03:24:22;102566.13;;;18.65;71.67
76358;BME280;65185;21.060;105.826;2023-02-15T03:26:51;102570.22;;;18.68;72.66
76358;BME280;65185;21.060;105.826;2023-02-15T03:29:20;102563.69;;;18.69;71.91
76358;BME280;65185;21.060;105.826;2023-02-15T03:31:51;102562.59;;;18.65;71.17
76358;BME280;65185;21.060;105.826;2023-02-15T03:34:21;102549.53;;;18.67;70.06
76358;BME280;65185;21.060;105.826;2023-02-15T03:37:03;102550.34;;;18.67;69.56
76358;BME280;65185;21.060;105.826;2023-02-15T03:39:38;102550.91;;;18.69;71.50
76358;BME280;65185;21.060;105.826;2023-02-15T03:47:35;102542.50;;;18.71;72.26
76358;BME280;65185;21.060;105.826;2023-02-15T03:50:20;102541.69;;;18.76;72.31
76358;BME280;65185;21.060;105.826;2023-02-15T03:53:10;102540.28;;;18.73;72.46
76358;BME280;65185;21.060;105.826;2023-02-15T03:55:39;102534.84;;;18.68;71.44
76358;BME280;65185;21.060;105.826;2023-02-15T03:58:06;102522.06;;;18.68;70.34
76358;BME280;65185;21.060;105.826;2023-02-15T04:01:45;102513.63;;;18.70;69.03
76358;BME280;65185;21.060;105.826;2023-02-15T04:04:19;102505.44;;;18.65;71.56
76358;BME280;65185;21.060;105.826;2023-02-15T04:06:47;102509.25;;;18.64;74.40
76358;BME280;65185;21.060;105.826;2023-02-15T04:09:14;102495.38;;;18.65;76.31
76358;BME280;65185;21.060;105.826;2023-02-15T04:11:59;102487.75;;;18.67;77.40
76358;BME280;65185;21.060;105.826;2023-02-15T04:14:25;102485.84;;;18.68;76.55
76358;BME280;65185;21.060;105.826;2023-02-15T04:17:10;102481.47;;;18.62;77.33
76358;BME280;65185;21.060;105.826;2023-02-15T04:19:37;102475.19;;;18.56;76.16
76358;BME280;65185;21.060;105.826;2023-02-15T04:22:22;102467.34;;;18.60;75.50
76358;BME280;65185;21.060;105.826;2023-02-15T04:25:06;102463.53;;;18.61;75.91
76358;BME280;65185;21.060;105.826;2023-02-15T04:27:48;102468.16;;;18.60;76.60
76358;BME280;65185;21.060;105.826;2023-02-15T04:30:16;102459.19;;;18.65;75.81
76358;BME280;65185;21.060;105.826;2023-02-15T04:32:44;102453.97;;;18.58;75.44
76358;BME280;65185;21.060;105.826;2023-02-15T04:35:11;102454.25;;;18.62;77.88
76358;BME280;65185;21.060;105.826;2023-02-15T04:37:39;102442.28;;;18.58;78.31
76358;BME280;65185;21.060;105.826;2023-02-15T04:40:06;102440.59;;;18.47;77.10
76358;BME280;65185;21.060;105.826;2023-02-15T04:42:34;102436.78;;;18.53;75.22
76358;BME280;65185;21.060;105.826;2023-02-15T04:45:01;102432.47;;;18.57;77.01
76358;BME280;65185;21.060;105.826;2023-02-15T04:47:28;102421.59;;;18.62;77.69
76358;BME280;65185;21.060;105.826;2023-02-15T04:49:55;102417.81;;;18.63;76.99
76358;BME280;65185;21.060;105.826;2023-02-15T04:52:21;102411.53;;;18.62;75.31
76358;BME280;65185;21.060;105.826;2023-02-15T04:54:48;102404.19;;;18.63;73.46
76358;BME280;65185;21.060;105.826;2023-02-15T04:57:15;102399.56;;;18.63;73.31
76358;BME280;65185;21.060;105.826;2023-02-15T04:59:42;102396.03;;;18.63;73.32
76358;BME280;65185;21.060;105.826;2023-02-15T05:02:08;102392.50;;;18.67;73.27
76358;BME280;65185;21.060;105.826;2023-02-15T05:04:35;102380.00;;;18.66;73.56
76358;BME280;65185;21.060;105.826;2023-02-15T05:07:02;102375.91;;;18.64;72.29
76358;BME280;65185;21.060;105.826;2023-02-15T05:09:28;102375.91;;;18.64;72.95
76358;BME280;65185;21.060;105.826;2023-02-15T05:11:55;102369.38;;;18.60;72.50
76358;BME280;65185;21.060;105.826;2023-02-15T05:14:22;102360.63;;;18.53;73.03
76358;BME280;65185;21.060;105.826;2023-02-15T05:16:48;102351.94;;;18.56;74.25
76358;BME280;65185;21.060;105.826;2023-02-15T05:19:15;102346.78;;;18.59;74.83
76358;BME280;65185;21.060;105.826;2023-02-15T05:21:42;102343.50;;;18.62;75.38
76358;BME280;65185;21.060;105.826;2023-02-15T05:24:09;102342.16;;;18.65;74.36
76358;BME280;65185;21.060;105.826;2023-02-15T05:26:53;102333.19;;;18.64;74.46
76358;BME280;65185;21.060;105.826;2023-02-15T05:29:45;102331.53;;;18.63;75.69
76358;BME280;65185;21.060;105.826;2023-02-15T05:32:15;102328.56;;;18.65;73.46
76358;BME280;65185;21.060;105.826;2023-02-15T05:34:41;102317.94;;;18.63;75.46
76358;BME280;65185;21.060;105.826;2023-02-15T05:37:08;102316.03;;;18.69;74.61
76358;BME280;65185;21.060;105.826;2023-02-15T05:39:34;102313.88;;;18.71;73.85
76358;BME280;65185;21.060;105.826;2023-02-15T05:42:01;102307.88;;;18.69;73.29
76358;BME280;65185;21.060;105.826;2023-02-15T05:44:27;102300.78;;;18.68;72.84
76358;BME280;65185;21.060;105.826;2023-02-15T05:46:54;102297.81;;;18.69;75.01
76358;BME280;65185;21.060;105.826;2023-02-15T05:49:21;102285.56;;;18.72;74.98
76358;BME280;65185;21.060;105.826;2023-02-15T05:51:48;102292.63;;;18.73;74.14
76358;BME280;65185;21.060;105.826;2023-02-15T05:54:14;102272.50;;;18.74;73.33
76358;BME280;65185;21.060;105.826;2023-02-15T05:56:41;102270.84;;;18.73;72.61
76358;BME280;65185;21.060;105.826;2023-02-15T05:59:08;102272.50;;;18.74;72.51
76358;BME280;65185;21.060;105.826;2023-02-15T06:01:35;102258.63;;;18.81;72.58
76358;BME280;65185;21.060;105.826;2023-02-15T06:04:01;102254.25;;;18.85;72.57
76358;BME280;65185;21.060;105.826;2023-02-15T06:06:28;102248.53;;;18.86;70.34
76358;BME280;65185;21.060;105.826;2023-02-15T06:08:55;102235.47;;;18.88;71.40
76358;BME280;65185;21.060;105.826;2023-02-15T06:11:21;102232.47;;;18.85;70.82
76358;BME280;65185;21.060;105.826;2023-02-15T06:13:48;102232.19;;;18.86;72.16
76358;BME280;65185;21.060;105.826;2023-02-15T06:16:14;102240.38;;;18.86;71.75
76358;BME280;65185;21.060;105.826;2023-02-15T06:18:41;102225.41;;;18.89;71.75
76358;BME280;65185;21.060;105.826;2023-02-15T06:21:08;102226.47;;;18.93;70.53
76358;BME280;65185;21.060;105.826;2023-02-15T06:23:35;102223.50;;;18.94;70.56
76358;BME280;65185;21.060;105.826;2023-02-15T06:26:02;102214.50;;;18.99;69.16
76358;BME280;65185;21.060;105.826;2023-02-15T06:28:28;102212.03;;;19.02;68.97
76358;BME280;65185;21.060;105.826;2023-02-15T06:30:55;102210.91;;;19.08;68.38
76358;BME280;65185;21.060;105.826;2023-02-15T06:33:22;102201.09;;;19.13;68.57
76358;BME280;65185;21.060;105.826;2023-02-15T06:35:49;102194.28;;;19.15;67.62
76358;BME280;65185;21.060;105.826;2023-02-15T06:38:16;102200.00;;;19.14;67.28
76358;BME280;65185;21.060;105.826;2023-02-15T06:40:43;102197.53;;;19.17;66.94
76358;BME280;65185;21.060;105.826;2023-02-15T06:43:09;102189.38;;;19.17;67.69
76358;BME280;65185;21.060;105.826;2023-02-15T06:45:36;102189.38;;;19.17;67.21
76358;BME280;65185;21.060;105.826;2023-02-15T06:48:03;102186.38;;;19.14;67.76
76358;BME280;65185;21.060;105.826;2023-02-15T06:50:32;102173.84;;;19.18;68.73
76358;BME280;65185;21.060;105.826;2023-02-15T06:52:59;102179.28;;;19.18;69.56
76358;BME280;65185;21.060;105.826;2023-02-15T06:55:26;102179.28;;;19.18;70.39
76358;BME280;65185;21.060;105.826;2023-02-15T06:57:52;102182.00;;;19.18;69.50
76358;BME280;65185;21.060;105.826;2023-02-15T07:00:19;102176.56;;;19.18;68.81
76358;BME280;65185;21.060;105.826;2023-02-15T07:02:47;102173.56;;;19.19;67.78
76358;BME280;65185;21.060;105.826;2023-02-15T07:05:14;102163.25;;;19.16;67.98
76358;BME280;65185;21.060;105.826;2023-02-15T07:07:41;102172.78;;;19.14;69.82
76358;BME280;65185;21.060;105.826;2023-02-15T07:10:08;102171.97;;;19.13;71.99
76358;BME280;65185;21.060;105.826;2023-02-15T07:12:34;102162.97;;;19.13;71.25
76358;BME280;65185;21.060;105.826;2023-02-15T07:15:16;102166.78;;;19.11;70.37
76358;BME280;65185;21.060;105.826;2023-02-15T07:17:44;102168.72;;;19.11;70.81
76358;BME280;65185;21.060;105.826;2023-02-15T07:20:21;102164.63;;;19.08;69.54
76358;BME280;65185;21.060;105.826;2023-02-15T07:22:48;102159.72;;;19.10;70.26
76358;BME280;65185;21.060;105.826;2023-02-15T07:25:15;102160.81;;;19.09;69.88
76358;BME280;65185;21.060;105.826;2023-02-15T07:27:42;102152.91;;;19.08;70.12
76358;BME280;65185;21.060;105.826;2023-02-15T07:30:13;102145.84;;;19.07;69.66
76358;BME280;65185;21.060;105.826;2023-02-15T07:32:40;102149.91;;;19.09;70.03
76358;BME280;65185;21.060;105.826;2023-02-15T07:35:27;102148.28;;;19.08;70.21
76358;BME280;65185;21.060;105.826;2023-02-15T07:37:56;102141.47;;;19.11;70.72
76358;BME280;65185;21.060;105.826;2023-02-15T07:40:23;102152.09;;;19.07;70.58
76358;BME280;65185;21.060;105.826;2023-02-15T07:42:50;102151.88;;;18.99;69.92
76358;BME280;65185;21.060;105.826;2023-02-15T07:45:21;102149.97;;;18.99;69.60
76358;BME280;65185;21.060;105.826;2023-02-15T07:47:47;102147.25;;;18.99;70.83
76358;BME280;65185;21.060;105.826;2023-02-15T07:50:14;102146.69;;;18.97;72.95
76358;BME280;65185;21.060;105.826;2023-02-15T07:52:41;102143.41;;;18.95;72.96
76358;BME280;65185;21.060;105.826;2023-02-15T07:55:07;102146.16;;;18.95;72.16
76358;BME280;65185;21.060;105.826;2023-02-15T07:57:46;102145.63;;;18.93;70.88
76358;BME280;65185;21.060;105.826;2023-02-15T08:00:14;102154.88;;;18.92;72.11
76358;BME280;65185;21.060;105.826;2023-02-15T08:02:42;102149.44;;;18.92;73.46
76358;BME280;65185;21.060;105.826;2023-02-15T08:05:08;102140.19;;;18.93;73.71
76358;BME280;65185;21.060;105.826;2023-02-15T08:07:35;102141.53;;;18.91;74.29
76358;BME280;65185;21.060;105.826;2023-02-15T08:10:02;102141.81;;;18.89;73.56
76358;BME280;65185;21.060;105.826;2023-02-15T08:12:28;102145.91;;;18.87;74.34
76358;BME280;65185;21.060;105.826;2023-02-15T08:14:55;102137.47;;;18.88;75.82
76358;BME280;65185;21.060;105.826;2023-02-15T08:17:22;102141.28;;;18.87;75.58
76358;BME280;65185;21.060;105.826;2023-02-15T08:19:49;102137.47;;;18.88;75.76
76358;BME280;65185;21.060;105.826;2023-02-15T08:22:16;102137.72;;;18.92;74.54
76358;BME280;65185;21.060;105.826;2023-02-15T08:24:42;102139.91;;;18.90;74.10
76358;BME280;65185;21.060;105.826;2023-02-15T08:27:10;102132.31;;;18.87;74.59
76358;BME280;65185;21.060;105.826;2023-02-15T08:29:37;102130.41;;;18.87;76.11
76358;BME280;65185;21.060;105.826;2023-02-15T08:32:12;102128.50;;;18.88;78.12
76358;BME280;65185;21.060;105.826;2023-02-15T08:34:41;102131.72;;;18.95;77.67
76358;BME280;65185;21.060;105.826;2023-02-15T08:37:07;102126.56;;;18.93;78.54
76358;BME280;65185;21.060;105.826;2023-02-15T08:39:35;102124.13;;;18.92;77.96
76358;BME280;65185;21.060;105.826;2023-02-15T08:42:02;102126.59;;;18.88;76.33
76358;BME280;65185;21.060;105.826;2023-02-15T08:44:28;102137.19;;;18.85;74.16
76358;BME280;65185;21.060;105.826;2023-02-15T08:46:55;102136.38;;;18.84;75.31
76358;BME280;65185;21.060;105.826;2023-02-15T08:49:28;102137.75;;;18.82;75.75
76358;BME280;65185;21.060;105.826;2023-02-15T08:51:55;102126.06;;;18.81;75.65
76358;BME280;65185;21.060;105.826;2023-02-15T08:54:21;102140.22;;;18.83;79.07
76358;BME280;65185;21.060;105.826;2023-02-15T08:56:48;102137.19;;;18.85;78.73
76358;BME280;65185;21.060;105.826;2023-02-15T08:59:18;102134.22;;;18.81;78.63
76358;BME280;65185;21.060;105.826;2023-02-15T09:01:46;102135.31;;;18.80;78.65
76358;BME280;65185;21.060;105.826;2023-02-15T09:04:13;102143.22;;;18.82;78.23
76358;BME280;65185;21.060;105.826;2023-02-15T09:06:42;102135.31;;;18.80;78.34
76358;BME280;65185;21.060;105.826;2023-02-15T09:09:11;102138.03;;;18.80;77.02
76358;BME280;65185;21.060;105.826;2023-02-15T09:11:40;102141.84;;;18.79;77.45
76358;BME280;65185;21.060;105.826;2023-02-15T09:14:12;102138.03;;;18.80;76.90
76358;BME280;65185;21.060;105.826;2023-02-15T09:16:41;102150.00;;;18.79;78.06
76358;BME280;65185;21.060;105.826;2023-02-15T09:19:10;102142.66;;;18.75;77.20
76358;BME280;65185;21.060;105.826;2023-02-15T09:21:38;102144.56;;;18.74;77.35
76358;BME280;65185;21.060;105.826;2023-02-15T09:24:07;102148.66;;;18.77;78.91
76358;BME280;65185;21.060;105.826;2023-02-15T09:26:36;102138.63;;;18.72;78.62
76358;BME280;65185;21.060;105.826;2023-02-15T09:29:04;102145.41;;;18.69;79.68
76358;BME280;65185;21.060;105.826;2023-02-15T09:31:33;102148.94;;;18.70;79.82
76358;BME280;65185;21.060;105.826;2023-02-15T09:34:01;102151.41;;;18.72;79.24
76358;BME280;65185;21.060;105.826;2023-02-15T09:36:35;102152.50;;;18.71;78.15
76358;BME280;65185;21.060;105.826;2023-02-15T09:39:16;102160.38;;;18.72;78.52
76358;BME280;65185;21.060;105.826;2023-02-15T10:15:23;102176.19;;;18.60;80.62
76358;BME280;65185;21.060;105.826;2023-02-15T10:18:15;102177.78;;;18.56;81.46
76358;BME280;65185;21.060;105.826;2023-02-15T10:23:53;102188.97;;;18.59;81.80
76358;BME280;65185;21.060;105.826;2023-02-15T10:26:47;102190.31;;;18.57;80.37
76358;BME280;65185;21.060;105.826;2023-02-15T10:29:27;102195.75;;;18.57;80.57
76358;BME280;65185;21.060;105.826;2023-02-15T10:32:25;102195.75;;;18.57;81.24
76358;BME280;65185;21.060;105.826;2023-02-15T10:40:36;102210.44;;;18.56;82.24
76358;BME280;65185;21.060;105.826;2023-02-15T10:43:19;102217.81;;;18.55;82.30
76358;BME280;65185;21.060;105.826;2023-02-15T10:46:17;102218.59;;;18.56;82.11
76358;BME280;65185;21.060;105.826;2023-02-15T10:57:15;102220.53;;;18.55;81.21
76358;BME280;65185;21.060;105.826;2023-02-15T10:59:56;102226.47;;;18.52;80.67
76358;BME280;65185;21.060;105.826;2023-02-15T11:02:49;102221.84;;;18.53;80.01
76358;BME280;65185;21.060;105.826;2023-02-15T11:05:31;102228.94;;;18.54;79.12
76358;BME280;65185;21.060;105.826;2023-02-15T11:08:06;102228.94;;;18.54;79.28
76358;BME280;65185;21.060;105.826;2023-02-15T11:13:32;102245.25;;;18.54;78.91
76358;BME280;65185;21.060;105.826;2023-02-15T11:16:10;102241.97;;;18.52;79.30
76358;BME280;65185;21.060;105.826;2023-02-15T11:19:01;102246.94;;;18.55;79.70
76358;BME280;65185;21.060;105.826;2023-02-15T11:21:33;102249.66;;;18.55;79.32
76358;BME280;65185;21.060;105.826;2023-02-15T11:24:17;102248.84;;;18.54;79.60
76358;BME280;65185;21.060;105.826;2023-02-15T11:26:51;102244.44;;;18.53;81.19
76358;BME280;65185;21.060;105.826;2023-02-15T11:37:59;102255.59;;;18.47;81.39
76358;BME280;65185;21.060;105.826;2023-02-15T11:40:51;102259.38;;;18.41;82.78
76358;BME280;65185;21.060;105.826;2023-02-15T11:46:23;102267.28;;;18.37;84.47
76358;BME280;65185;21.060;105.826;2023-02-15T11:48:50;102264.31;;;18.39;84.82
76358;BME280;65185;21.060;105.826;2023-02-15T11:51:20;102270.53;;;18.39;83.50
76358;BME280;65185;21.060;105.826;2023-02-15T11:53:48;102275.97;;;18.39;83.40
76358;BME280;65185;21.060;105.826;2023-02-15T11:56:22;102273.53;;;18.38;83.38
76358;BME280;65185;21.060;105.826;2023-02-15T11:59:03;102269.44;;;18.35;82.23
76358;BME280;65185;21.060;105.826;2023-02-15T12:01:43;102279.00;;;18.38;84.57
76358;BME280;65185;21.060;105.826;2023-02-15T12:04:38;102283.59;;;18.37;84.07
76358;BME280;65185;21.060;105.826;2023-02-15T12:07:15;102281.69;;;18.33;84.51
76358;BME280;65185;21.060;105.826;2023-02-15T12:10:03;102295.00;;;18.34;84.20
76358;BME280;65185;21.060;105.826;2023-02-15T12:12:36;102296.63;;;18.30;83.56
76358;BME280;65185;21.060;105.826;2023-02-15T12:15:08;102295.28;;;18.27;84.56
76358;BME280;65185;21.060;105.826;2023-02-15T12:17:39;102296.09;;;18.28;84.84
76358;BME280;65185;21.060;105.826;2023-02-15T12:20:33;102301.25;;;18.29;86.23
76358;BME280;65185;21.060;105.826;2023-02-15T12:23:14;102304.81;;;18.30;86.57
76358;BME280;65185;21.060;105.826;2023-02-15T12:28:29;102327.63;;;18.29;85.93
76358;BME280;65185;21.060;105.826;2023-02-15T12:30:57;102325.47;;;18.26;85.85
76358;BME280;65185;21.060;105.826;2023-02-15T12:33:32;102328.44;;;18.24;86.75
76358;BME280;65185;21.060;105.826;2023-02-15T12:36:09;102331.19;;;18.29;87.07
76358;BME280;65185;21.060;105.826;2023-02-15T12:38:37;102339.34;;;18.29;87.97
76358;BME280;65185;21.060;105.826;2023-02-15T12:43:44;102345.31;;;18.26;87.17
76358;BME280;65185;21.060;105.826;2023-02-15T12:46:29;102352.94;;;18.24;87.32
76358;BME280;65185;21.060;105.826;2023-02-15T12:51:48;102363.25;;;18.22;86.70
76358;BME280;65185;21.060;105.826;2023-02-15T12:56:48;102361.91;;;18.25;87.31
76358;BME280;65185;21.060;105.826;2023-02-15T12:59:15;102361.34;;;18.28;88.15
76358;BME280;65185;21.060;105.826;2023-02-15T13:01:46;102369.81;;;18.32;88.06
76358;BME280;65185;21.060;105.826;2023-02-15T13:04:28;102379.06;;;18.36;87.58
76358;BME280;65185;21.060;105.826;2023-02-15T13:06:58;102377.97;;;18.32;87.40
76358;BME280;65185;21.060;105.826;2023-02-15T13:09:35;102389.13;;;18.30;87.22
76358;BME280;65185;21.060;105.826;2023-02-15T13:12:23;102376.88;;;18.27;86.92
76358;BME280;65185;21.060;105.826;2023-02-15T13:14:56;102380.69;;;18.26;86.88
76358;BME280;65185;21.060;105.826;2023-02-15T13:17:32;102388.84;;;18.26;87.41
76358;BME280;65185;21.060;105.826;2023-02-15T13:20:05;102391.84;;;18.30;87.17
76358;BME280;65185;21.060;105.826;2023-02-15T13:22:41;102395.34;;;18.25;86.93
76358;BME280;65185;21.060;105.826;2023-02-15T13:27:51;102395.34;;;18.20;87.37
76358;BME280;65185;21.060;105.826;2023-02-15T13:30:30;102395.88;;;18.22;89.56
76358;BME280;65185;21.060;105.826;2023-02-15T13:33:06;102395.88;;;18.22;88.74
76358;BME280;65185;21.060;105.826;2023-02-15T13:36:05;102402.94;;;18.18;88.57
76358;BME280;65185;21.060;105.826;2023-02-15T13:49:47;102411.91;;;18.19;88.89
76358;BME280;65185;21.060;105.826;2023-02-15T13:52:27;102416.28;;;18.20;89.03
76358;BME280;65185;21.060;105.826;2023-02-15T14:21:03;102415.50;;;18.29;89.91
76358;BME280;65185;21.060;105.826;2023-02-15T14:26:28;102421.19;;;18.28;89.14
76358;BME280;65185;21.060;105.826;2023-02-15T14:31:47;102420.69;;;18.31;89.56
76358;BME280;65185;21.060;105.826;2023-02-15T14:35:03;102419.59;;;18.32;89.60
76358;BME280;65185;21.060;105.826;2023-02-15T14:41:04;102414.41;;;18.25;90.12
76358;BME280;65185;21.060;105.826;2023-02-15T14:49:27;102416.53;;;18.18;91.16
76358;BME280;65185;21.060;105.826;2023-02-15T14:51:57;102409.44;;;18.17;91.08
76358;BME280;65185;21.060;105.826;2023-02-15T15:02:48;102424.16;;;18.16;89.38
76358;BME280;65185;21.060;105.826;2023-02-15T15:05:32;102420.06;;;18.19;90.03
76358;BME280;65185;21.060;105.826;2023-02-15T15:08:03;102416.00;;;18.16;89.47
76358;BME280;65185;21.060;105.826;2023-02-15T15:10:46;102416.78;;;18.12;89.72
76358;BME280;65185;21.060;105.826;2023-02-15T15:19:05;102416.00;;;18.16;91.04
76358;BME280;65185;21.060;105.826;2023-02-15T15:21:55;102416.25;;;18.15;90.05
76358;BME280;65185;21.060;105.826;2023-02-15T15:27:39;102415.44;;;18.14;90.38
76358;BME280;65185;21.060;105.826;2023-02-15T15:49:38;102410.84;;;18.25;91.21
76358;BME280;65185;21.060;105.826;2023-02-15T15:52:18;102410.56;;;18.21;90.10
76358;BME280;65185;21.060;105.826;2023-02-15T15:54:48;102407.28;;;18.19;90.89
76358;BME280;65185;21.060;105.826;2023-02-15T15:59:55;102408.63;;;18.17;90.45
76358;BME280;65185;21.060;105.826;2023-02-15T16:02:25;102408.63;;;18.17;91.04
76358;BME280;65185;21.060;105.826;2023-02-15T16:04:52;102400.53;;;18.22;91.85
76358;BME280;65185;21.060;105.826;2023-02-15T16:10:00;102394.25;;;18.21;90.86
76358;BME280;65185;21.060;105.826;2023-02-15T16:12:30;102397.50;;;18.18;90.16
76358;BME280;65185;21.060;105.826;2023-02-15T16:14:58;102398.06;;;18.20;91.12
76358;BME280;65185;21.060;105.826;2023-02-15T16:17:29;102403.78;;;18.24;89.64
76358;BME280;65185;21.060;105.826;2023-02-15T16:20:03;102398.31;;;18.19;88.90
76358;BME280;65185;21.060;105.826;2023-02-15T16:22:32;102394.53;;;18.20;89.23
76358;BME280;65185;21.060;105.826;2023-02-15T16:27:41;102398.31;;;18.19;89.23
76358;BME280;65185;21.060;105.826;2023-02-15T16:30:31;102395.59;;;18.19;88.89
76358;BME280;65185;21.060;105.826;2023-02-15T16:33:11;102397.25;;;18.20;89.54
76358;BME280;65185;21.060;105.826;2023-02-15T16:35:48;102407.03;;;18.21;88.75